createdAt,value
2023-02-11T00:00:07.145Z,39.70
2023-02-11T00:01:12.181Z,38.33
2023-02-11T00:02:13.999Z,34.03
2023-02-11T00:03:15.882Z,35.87
2023-02-11T00:04:17.648Z,41.43
2023-02-11T00:05:19.416Z,35.53
2023-02-11T00:06:21.820Z,37.07
2023-02-11T00:07:23.612Z,35.50
2023-02-11T00:08:25.877Z,37.80
2023-02-11T00:09:28.531Z,37.10
2023-02-11T00:10:31.509Z,37.07
2023-02-11T00:11:33.780Z,37.73
2023-02-11T00:12:37.178Z,39.63
2023-02-11T00:13:38.926Z,36.23
2023-02-11T00:14:40.684Z,36.53
2023-02-11T00:15:42.386Z,39.20
2023-02-11T00:16:44.147Z,39.27
2023-02-11T00:17:45.925Z,34.93
2023-02-11T00:18:48.081Z,35.87
2023-02-11T00:19:50.890Z,35.67
2023-02-11T00:20:52.614Z,41.40
2023-02-11T00:21:54.444Z,37.03
2023-02-11T00:22:56.184Z,35.47
2023-02-11T00:23:59.833Z,37.10
2023-02-11T00:25:01.723Z,39.97
2023-02-11T00:26:04.989Z,39.83
2023-02-11T00:27:06.708Z,37.17
2023-02-11T00:28:09.058Z,37.20
2023-02-11T00:29:11.156Z,40.37
2023-02-11T00:30:13.155Z,36.63
2023-02-11T00:31:16.417Z,40.77
2023-02-11T00:32:18.531Z,36.27
2023-02-11T00:33:20.296Z,35.70
2023-02-11T00:34:21.985Z,38.77
2023-02-11T00:35:23.915Z,40.90
2023-02-11T00:36:28.029Z,39.17
2023-02-11T00:37:29.800Z,42.03
2023-02-11T00:38:31.552Z,36.90
2023-02-11T00:39:33.377Z,38.30
2023-02-11T00:40:35.179Z,37.87
2023-02-11T00:41:37.169Z,39.60
2023-02-11T00:42:38.958Z,39.17
2023-02-11T00:43:41.296Z,40.03
2023-02-11T00:44:43.256Z,37.77
2023-02-11T00:45:45.164Z,39.37
2023-02-11T00:46:47.115Z,41.23
2023-02-11T00:47:49.027Z,40.17
2023-02-11T00:48:51.798Z,36.60
2023-02-11T00:49:53.678Z,39.53
2023-02-11T00:50:55.425Z,40.07
2023-02-11T00:51:57.191Z,33.00
2023-02-11T00:52:58.998Z,33.23
2023-02-11T00:54:00.759Z,37.60
2023-02-11T00:55:02.523Z,33.67
2023-02-11T00:56:04.837Z,39.03
2023-02-11T00:57:06.556Z,38.23
2023-02-11T00:58:08.258Z,39.90
2023-02-11T00:59:10.165Z,39.83
2023-02-11T01:00:13.743Z,37.00
2023-02-11T01:01:15.516Z,38.90
2023-02-11T01:02:18.081Z,36.50
2023-02-11T01:03:19.880Z,36.50
2023-02-11T01:04:21.646Z,37.50
2023-02-11T01:05:24.763Z,35.77
2023-02-11T01:06:26.541Z,38.00
2023-02-11T01:07:28.761Z,36.57
2023-02-11T01:08:30.687Z,34.47
2023-02-11T01:09:32.418Z,36.63
2023-02-11T01:10:34.151Z,40.40
2023-02-11T01:11:35.945Z,36.60
2023-02-11T01:12:37.977Z,37.60
2023-02-11T01:13:39.918Z,35.43
2023-02-11T01:14:42.001Z,38.93
2023-02-11T01:15:43.817Z,36.47
2023-02-11T01:16:45.632Z,39.90
2023-02-11T01:17:47.900Z,39.63
2023-02-11T01:18:49.664Z,36.53
2023-02-11T01:19:51.362Z,37.37
2023-02-11T01:20:53.895Z,39.40
2023-02-11T01:21:55.574Z,36.57
2023-02-11T01:22:57.409Z,41.50
2023-02-11T01:23:59.134Z,41.40
2023-02-11T01:25:01.269Z,39.70
2023-02-11T01:26:03.151Z,39.23
2023-02-11T01:27:04.875Z,40.47
2023-02-11T01:28:06.610Z,41.27
2023-02-11T01:29:09.401Z,40.87
2023-02-11T01:30:13.629Z,37.77
2023-02-11T01:31:15.447Z,41.47
2023-02-11T01:32:18.552Z,41.23
2023-02-11T01:33:21.118Z,42.60
2023-02-11T01:34:22.832Z,37.90
2023-02-11T01:35:24.642Z,40.70
2023-02-11T01:36:26.404Z,36.33
2023-02-11T01:37:28.508Z,36.03
2023-02-11T01:38:31.185Z,35.40
2023-02-11T01:39:34.072Z,38.33
2023-02-11T01:40:35.844Z,38.03
2023-02-11T01:41:37.674Z,39.90
2023-02-11T01:42:39.426Z,37.80
2023-02-11T01:43:44.893Z,38.33
2023-02-11T01:44:51.443Z,40.63
2023-02-11T01:46:14.554Z,39.37
2023-02-11T01:47:16.262Z,40.23
2023-02-11T01:48:26.853Z,42.90
2023-02-11T01:49:32.305Z,40.80
2023-02-11T01:50:34.643Z,38.47
2023-02-11T01:51:46.256Z,37.60
2023-02-11T01:52:48.225Z,36.90
2023-02-11T01:54:09.737Z,38.10
2023-02-11T01:55:32.265Z,36.23
2023-02-11T01:56:55.697Z,36.80
2023-02-11T01:58:02.462Z,40.60
2023-02-11T01:59:10.949Z,39.30
2023-02-11T02:00:24.173Z,39.43
2023-02-11T02:01:27.714Z,41.40
2023-02-11T02:02:49.964Z,38.80
2023-02-11T02:03:57.174Z,39.87
2023-02-11T02:05:08.273Z,38.20
2023-02-11T02:06:16.622Z,40.73
2023-02-11T02:07:30.642Z,39.63
2023-02-11T02:08:50.326Z,39.97
2023-02-11T02:10:00.614Z,35.87
2023-02-11T02:11:03.438Z,37.27
2023-02-11T02:12:05.475Z,39.67
2023-02-11T02:13:07.228Z,38.50
2023-02-11T02:14:08.982Z,34.23
2023-02-11T02:15:24.570Z,38.53
2023-02-11T02:16:33.061Z,36.40
2023-02-11T02:17:44.053Z,36.03
2023-02-11T02:19:07.150Z,37.37
2023-02-11T02:20:34.234Z,36.30
2023-02-11T02:21:54.692Z,36.57
2023-02-11T02:23:11.466Z,37.27
2023-02-11T02:24:31.812Z,33.77
2023-02-11T02:25:39.437Z,39.70
2023-02-11T02:27:00.566Z,36.63
2023-02-11T02:28:40.741Z,36.10
2023-02-11T02:30:28.577Z,41.23
2023-02-11T02:32:11.541Z,39.97
2023-02-11T02:33:23.004Z,39.10
2023-02-11T02:34:42.985Z,36.93
2023-02-11T02:35:58.447Z,41.00
2023-02-11T02:37:17.395Z,33.20
2023-02-11T02:38:23.358Z,39.20
2023-02-11T02:39:29.359Z,37.30
2023-02-11T02:40:46.464Z,39.40
2023-02-11T02:41:50.862Z,42.50
2023-02-11T02:42:55.109Z,44.50
2023-02-11T02:43:57.288Z,39.80
2023-02-11T02:44:59.318Z,39.97
2023-02-11T02:46:31.810Z,44.80
2023-02-11T02:47:33.548Z,43.37
2023-02-11T02:48:38.214Z,43.80
2023-02-11T02:49:39.881Z,38.57
2023-02-11T02:50:41.742Z,43.43
2023-02-11T02:51:49.172Z,44.70
2023-02-11T02:53:10.662Z,47.53
2023-02-11T02:54:28.545Z,46.73
2023-02-11T02:55:42.862Z,49.30
2023-02-11T02:57:07.071Z,44.57
2023-02-11T02:58:39.985Z,43.47
2023-02-11T02:59:51.048Z,44.07
2023-02-11T03:01:14.769Z,42.57
2023-02-11T03:02:33.741Z,42.27
2023-02-11T03:03:58.697Z,44.57
2023-02-11T03:05:15.255Z,46.13
2023-02-11T03:06:45.145Z,48.40
2023-02-11T03:08:02.712Z,38.90
2023-02-11T03:09:13.458Z,44.43
2023-02-11T03:10:25.221Z,39.97
2023-02-11T03:11:29.055Z,38.83
2023-02-11T03:12:32.496Z,43.23
2023-02-11T03:13:37.610Z,42.43
2023-02-11T03:14:41.044Z,43.87
2023-02-11T03:15:46.399Z,40.47
2023-02-11T03:16:49.576Z,41.07
2023-02-11T03:17:54.457Z,41.73
2023-02-11T03:19:02.182Z,43.60
2023-02-11T03:20:06.758Z,43.97
2023-02-11T03:21:11.206Z,45.47
2023-02-11T03:22:25.492Z,40.00
2023-02-11T03:23:36.775Z,46.17
2023-02-11T03:24:40.989Z,45.40
2023-02-11T03:25:50.920Z,42.73
2023-02-11T03:27:01.637Z,44.40
2023-02-11T03:28:11.224Z,46.67
2023-02-11T03:29:24.469Z,42.33
2023-02-11T03:30:38.720Z,44.67
2023-02-11T03:32:07.495Z,44.60
2023-02-11T03:33:20.166Z,40.03
2023-02-11T03:34:44.384Z,48.10
2023-02-11T03:36:04.116Z,44.07
2023-02-11T03:37:14.202Z,37.97
2023-02-11T03:38:26.057Z,44.00
2023-02-11T03:39:33.599Z,41.17
2023-02-11T03:40:40.706Z,38.73
2023-02-11T03:41:43.353Z,42.43
2023-02-11T03:43:17.534Z,43.73
2023-02-11T03:44:20.977Z,44.70
2023-02-11T03:45:25.144Z,40.50
2023-02-11T03:46:39.143Z,40.37
2023-02-11T03:47:46.708Z,41.47
2023-02-11T03:49:01.254Z,43.03
2023-02-11T03:50:06.182Z,44.20
2023-02-11T03:51:10.976Z,39.57
2023-02-11T03:52:14.499Z,43.53
2023-02-11T03:53:16.900Z,42.63
2023-02-11T03:54:26.089Z,43.87
2023-02-11T03:55:29.880Z,39.30
2023-02-11T03:56:38.347Z,41.30
2023-02-11T03:57:40.132Z,37.57
2023-02-11T03:58:44.049Z,42.93
2023-02-11T03:59:58.166Z,40.80
2023-02-11T04:01:02.396Z,41.73
2023-02-11T04:02:04.156Z,42.13
2023-02-11T04:03:07.005Z,40.37
2023-02-11T04:04:08.820Z,42.60
2023-02-11T04:05:15.889Z,42.87
2023-02-11T04:06:17.668Z,47.23
2023-02-11T04:07:19.528Z,49.83
2023-02-11T04:08:21.352Z,48.10
2023-02-11T04:09:23.113Z,42.30
2023-02-11T04:10:25.219Z,43.97
2023-02-11T04:11:26.979Z,45.37
2023-02-11T04:12:28.669Z,45.10
2023-02-11T04:13:30.637Z,50.97
2023-02-11T04:14:32.319Z,46.73
2023-02-11T04:15:34.055Z,45.37
2023-02-11T04:16:35.785Z,43.77
2023-02-11T04:17:37.572Z,48.03
2023-02-11T04:18:39.237Z,44.87
2023-02-11T04:19:40.995Z,43.67
2023-02-11T04:20:42.916Z,47.23
2023-02-11T04:21:44.591Z,47.97
2023-02-11T04:22:46.343Z,43.13
2023-02-11T04:23:48.119Z,44.83
2023-02-11T04:24:49.973Z,41.73
2023-02-11T04:25:52.898Z,49.63
2023-02-11T04:26:55.148Z,48.10
2023-02-11T04:27:57.846Z,45.30
2023-02-11T04:28:59.519Z,43.03
2023-02-11T04:30:01.281Z,41.03
2023-02-11T04:31:03.100Z,45.80
2023-02-11T04:32:04.983Z,43.33
2023-02-11T04:33:06.758Z,44.77
2023-02-11T04:34:08.477Z,46.40
2023-02-11T04:35:10.266Z,44.03
2023-02-11T04:36:12.887Z,41.40
2023-02-11T04:37:15.042Z,45.00
2023-02-11T04:38:17.522Z,39.27
2023-02-11T04:39:19.208Z,48.63
2023-02-11T04:40:20.954Z,42.83
2023-02-11T04:41:22.725Z,44.80
2023-02-11T04:42:24.631Z,43.93
2023-02-11T04:43:26.369Z,44.03
2023-02-11T04:44:28.096Z,45.03
2023-02-11T04:45:29.794Z,44.80
2023-02-11T04:46:31.675Z,44.60
2023-02-11T04:47:33.648Z,43.97
2023-02-11T04:48:35.933Z,46.17
2023-02-11T04:49:37.627Z,42.83
2023-02-11T04:50:39.338Z,43.63
2023-02-11T04:51:41.836Z,42.40
2023-02-11T04:52:43.572Z,39.03
2023-02-11T04:53:45.316Z,42.27
2023-02-11T04:54:47.016Z,44.70
2023-02-11T04:55:50.856Z,43.40
2023-02-11T04:56:52.874Z,42.70
2023-02-11T04:57:55.354Z,44.50
2023-02-11T04:58:57.107Z,45.80
2023-02-11T04:59:58.869Z,43.47
2023-02-11T05:01:08.768Z,45.00
2023-02-11T05:02:10.559Z,44.90
2023-02-11T05:03:12.562Z,43.80
2023-02-11T05:04:14.310Z,45.10
2023-02-11T05:05:16.075Z,42.87
2023-02-11T05:06:18.425Z,42.00
2023-02-11T05:07:20.139Z,45.07
2023-02-11T05:08:21.986Z,47.93
2023-02-11T05:09:23.754Z,50.90
2023-02-11T05:10:25.536Z,50.27
2023-02-11T05:11:27.364Z,51.47
2023-02-11T05:12:29.045Z,51.47
2023-02-11T05:13:31.539Z,49.53
2023-02-11T05:14:33.502Z,46.03
2023-02-11T05:15:35.188Z,46.20
2023-02-11T05:16:36.942Z,49.47
2023-02-11T05:17:38.712Z,47.67
2023-02-11T05:18:42.266Z,45.33
2023-02-11T05:19:44.052Z,47.77
2023-02-11T05:20:46.248Z,47.53
2023-02-11T05:22:01.731Z,46.17
2023-02-11T05:23:04.117Z,42.33
2023-02-11T05:24:06.775Z,46.73
2023-02-11T05:25:08.639Z,43.93
2023-02-11T05:26:11.233Z,44.97
2023-02-11T05:27:12.969Z,42.67
2023-02-11T05:28:15.230Z,42.90
2023-02-11T05:29:16.991Z,40.20
2023-02-11T05:30:18.820Z,42.37
2023-02-11T05:31:20.556Z,44.67
2023-02-11T05:32:22.247Z,43.30
2023-02-11T05:33:24.174Z,45.77
2023-02-11T05:34:25.920Z,41.67
2023-02-11T05:35:27.667Z,42.27
2023-02-11T05:36:31.641Z,40.87
2023-02-11T05:37:35.186Z,43.73
2023-02-11T05:38:37.946Z,43.57
2023-02-11T05:39:39.636Z,41.43
2023-02-11T05:40:41.691Z,41.67
2023-02-11T05:41:43.444Z,40.37
2023-02-11T05:42:45.188Z,38.80
2023-02-11T05:43:51.023Z,41.07
2023-02-11T05:44:52.707Z,40.67
2023-02-11T05:45:54.760Z,42.97
2023-02-11T05:46:56.521Z,45.37
2023-02-11T05:47:58.227Z,37.40
2023-02-11T05:48:59.988Z,41.57
2023-02-11T05:50:01.767Z,39.57
2023-02-11T05:51:03.676Z,43.57
2023-02-11T05:52:05.696Z,40.90
2023-02-11T05:53:07.619Z,42.50
2023-02-11T05:54:09.967Z,43.60
2023-02-11T05:55:11.766Z,39.67
2023-02-11T05:56:14.594Z,41.03
2023-02-11T05:57:17.053Z,42.67
2023-02-11T05:58:18.833Z,40.03
2023-02-11T05:59:20.559Z,40.37
2023-02-11T06:00:22.522Z,46.93
2023-02-11T06:01:24.354Z,40.00
2023-02-11T06:02:27.496Z,41.77
2023-02-11T06:03:29.378Z,37.97
2023-02-11T06:04:31.215Z,38.90
2023-02-11T06:05:33.611Z,40.20
2023-02-11T06:06:35.362Z,37.73
2023-02-11T06:07:37.442Z,42.13
2023-02-11T06:08:39.618Z,41.50
2023-02-11T06:09:41.388Z,40.37
2023-02-11T06:10:45.681Z,41.53
2023-02-11T06:11:47.413Z,38.70
2023-02-11T06:12:49.263Z,39.70
2023-02-11T06:13:51.466Z,40.17
2023-02-11T06:14:53.513Z,45.97
2023-02-11T06:15:59.407Z,38.53
2023-02-11T06:17:01.809Z,39.93
2023-02-11T06:18:04.017Z,40.00
2023-02-11T06:19:05.871Z,41.40
2023-02-11T06:20:10.498Z,40.80
2023-02-11T06:21:12.833Z,39.10
2023-02-11T06:22:14.582Z,40.90
2023-02-11T06:23:16.374Z,42.00
2023-02-11T06:24:33.105Z,36.07
2023-02-11T06:25:39.864Z,38.03
2023-02-11T06:26:41.709Z,40.23
2023-02-11T06:27:43.441Z,40.10
2023-02-11T06:28:45.721Z,37.10
2023-02-11T06:29:47.967Z,40.00
2023-02-11T06:30:49.753Z,39.57
2023-02-11T06:31:51.652Z,38.97
2023-02-11T06:32:54.724Z,44.53
2023-02-11T06:33:56.527Z,42.60
2023-02-11T06:34:58.313Z,40.00
2023-02-11T06:36:00.324Z,40.77
2023-02-11T06:37:02.130Z,39.87
2023-02-11T06:38:03.926Z,41.20
2023-02-11T06:39:05.776Z,41.60
2023-02-11T06:40:08.351Z,37.97
2023-02-11T06:41:14.994Z,40.47
2023-02-11T06:42:16.749Z,36.77
2023-02-11T06:43:18.606Z,41.87
2023-02-11T06:44:20.289Z,37.90
2023-02-11T06:45:22.145Z,41.27
2023-02-11T06:46:24.094Z,43.70
2023-02-11T06:47:25.896Z,39.10
2023-02-11T06:48:27.693Z,44.40
2023-02-11T06:49:29.452Z,41.67
2023-02-11T06:50:31.206Z,38.20
2023-02-11T06:51:32.953Z,35.57
2023-02-11T06:52:34.791Z,35.83
2023-02-11T06:53:39.142Z,39.37
2023-02-11T06:54:40.865Z,38.30
2023-02-11T06:55:42.735Z,36.20
2023-02-11T06:56:44.441Z,39.07
2023-02-11T06:57:46.114Z,36.67
2023-02-11T06:58:48.281Z,39.17
2023-02-11T06:59:50.076Z,39.00
2023-02-11T07:00:52.377Z,34.97
2023-02-11T07:01:54.285Z,38.57
2023-02-11T07:02:56.374Z,44.13
2023-02-11T07:03:58.464Z,38.50
2023-02-11T07:05:00.286Z,41.30
2023-02-11T07:06:03.249Z,37.90
2023-02-11T07:07:05.022Z,39.90
2023-02-11T07:08:06.971Z,40.10
2023-02-11T07:09:08.848Z,41.47
2023-02-11T07:10:10.896Z,40.73
2023-02-11T07:11:17.905Z,38.07
2023-02-11T07:12:19.749Z,37.33
2023-02-11T07:13:21.688Z,39.60
2023-02-11T07:14:23.488Z,37.27
2023-02-11T07:15:25.238Z,37.97
2023-02-11T07:16:26.969Z,40.27
2023-02-11T07:17:28.736Z,34.17
2023-02-11T07:18:30.456Z,37.00
2023-02-11T07:19:32.361Z,40.37
2023-02-11T07:20:34.198Z,43.17
2023-02-11T07:21:36.032Z,40.60
2023-02-11T07:22:37.928Z,53.60
2023-02-11T07:23:40.937Z,45.13
2023-02-11T07:24:42.784Z,41.43
2023-02-11T07:25:44.570Z,36.67
2023-02-11T07:26:46.360Z,40.87
2023-02-11T07:27:48.044Z,43.47
2023-02-11T07:28:51.160Z,43.70
2023-02-11T07:29:53.127Z,39.73
2023-02-11T07:30:54.900Z,39.20
2023-02-11T07:31:56.647Z,38.70
2023-02-11T07:32:59.187Z,39.97
2023-02-11T07:34:01.839Z,40.23
2023-02-11T07:35:04.400Z,38.67
2023-02-11T07:36:08.488Z,36.33
2023-02-11T07:37:10.892Z,36.43
2023-02-11T07:38:12.888Z,38.27
2023-02-11T07:39:15.223Z,40.63
2023-02-11T07:40:17.187Z,37.30
2023-02-11T07:41:21.800Z,41.40
2023-02-11T07:42:23.503Z,37.67
2023-02-11T07:43:26.128Z,44.90
2023-02-11T07:44:27.950Z,44.83
2023-02-11T07:45:29.766Z,39.47
2023-02-11T07:46:31.670Z,44.80
2023-02-11T07:47:35.055Z,40.80
2023-02-11T07:48:36.987Z,36.70
2023-02-11T07:49:38.740Z,38.53
2023-02-11T07:50:40.836Z,38.17
2023-02-11T07:51:42.630Z,41.37
2023-02-11T07:52:44.295Z,37.97
2023-02-11T07:53:46.691Z,40.73
2023-02-11T07:54:48.793Z,41.50
2023-02-11T07:55:50.801Z,38.83
2023-02-11T07:56:52.722Z,41.53
2023-02-11T07:57:54.453Z,38.83
2023-02-11T07:58:59.721Z,41.57
2023-02-11T08:00:01.669Z,41.90
2023-02-11T08:01:09.427Z,39.93
2023-02-11T08:02:11.821Z,40.13
2023-02-11T08:03:13.584Z,39.40
2023-02-11T08:04:15.260Z,38.93
2023-02-11T08:05:17.020Z,40.40
2023-02-11T08:06:20.518Z,42.30
2023-02-11T08:07:22.314Z,37.90
2023-02-11T08:08:27.490Z,35.07
2023-02-11T08:09:29.270Z,37.33
2023-02-11T08:10:30.995Z,39.83
2023-02-11T08:11:32.861Z,36.77
2023-02-11T08:12:34.656Z,40.07
2023-02-11T08:13:36.993Z,40.83
2023-02-11T08:14:38.816Z,39.97
2023-02-11T08:15:40.591Z,39.47
2023-02-11T08:16:42.520Z,39.77
2023-02-11T08:17:44.247Z,39.53
2023-02-11T08:18:46.075Z,39.10
2023-02-11T08:19:47.841Z,39.13
2023-02-11T08:20:49.865Z,39.47
2023-02-11T08:21:55.555Z,39.30
2023-02-11T08:22:57.297Z,39.73
2023-02-11T08:24:00.977Z,36.53
2023-02-11T08:25:03.054Z,35.50
2023-02-11T08:26:11.863Z,40.57
2023-02-11T08:27:13.544Z,37.90
2023-02-11T08:28:15.405Z,39.70
2023-02-11T08:29:18.095Z,42.00
2023-02-11T08:30:20.081Z,35.77
2023-02-11T08:31:25.009Z,39.67
2023-02-11T08:32:26.877Z,38.97
2023-02-11T08:33:28.574Z,37.70
2023-02-11T08:34:30.318Z,37.87
2023-02-11T08:35:33.106Z,35.77
2023-02-11T08:36:37.461Z,37.50
2023-02-11T08:37:39.321Z,38.00
2023-02-11T08:38:42.077Z,38.20
2023-02-11T08:39:43.846Z,37.93
2023-02-11T08:40:45.593Z,36.43
2023-02-11T08:41:49.312Z,39.17
2023-02-11T08:42:51.003Z,36.30
2023-02-11T08:43:52.690Z,38.50
2023-02-11T08:44:54.362Z,37.57
2023-02-11T08:45:56.255Z,40.77
2023-02-11T08:46:57.970Z,37.43
2023-02-11T08:47:59.637Z,35.77
2023-02-11T08:49:01.409Z,36.37
2023-02-11T08:50:04.134Z,35.73
2023-02-11T08:51:08.431Z,39.50
2023-02-11T08:52:10.238Z,38.77
2023-02-11T08:53:12.022Z,37.67
2023-02-11T08:54:14.265Z,36.10
2023-02-11T08:55:16.226Z,35.40
2023-02-11T08:56:19.819Z,37.77
2023-02-11T08:57:21.678Z,38.80
2023-02-11T08:58:23.475Z,38.67
2023-02-11T08:59:25.195Z,37.47
2023-02-11T09:00:27.907Z,35.73
2023-02-11T09:01:31.697Z,35.50
2023-02-11T09:02:33.670Z,35.63
2023-02-11T09:03:35.379Z,37.07
2023-02-11T09:04:37.108Z,35.20
2023-02-11T09:05:43.201Z,35.50
2023-02-11T09:06:45.665Z,44.27
2023-02-11T09:07:47.348Z,40.63
2023-02-11T09:08:51.429Z,38.67
2023-02-11T09:09:53.256Z,36.23
2023-02-11T09:10:57.706Z,36.17
2023-02-11T09:12:01.210Z,42.37
2023-02-11T09:13:03.364Z,37.50
2023-02-11T09:14:05.203Z,36.07
2023-02-11T09:15:07.358Z,35.80
2023-02-11T09:16:15.857Z,35.80
2023-02-11T09:17:17.520Z,37.37
2023-02-11T09:18:19.233Z,40.00
2023-02-11T09:19:21.510Z,37.93
2023-02-11T09:20:23.582Z,34.13
2023-02-11T09:21:25.670Z,34.63
2023-02-11T09:22:27.471Z,40.30
2023-02-11T09:23:29.557Z,37.13
2023-02-11T09:24:31.340Z,38.67
2023-02-11T09:25:33.042Z,35.63
2023-02-11T09:26:36.733Z,36.37
2023-02-11T09:27:38.525Z,36.00
2023-02-11T09:28:40.931Z,34.57
2023-02-11T09:29:43.117Z,40.40
2023-02-11T09:30:44.884Z,34.90
2023-02-11T09:31:46.891Z,36.27
2023-02-11T09:32:48.917Z,39.10
2023-02-11T09:33:54.426Z,38.47
2023-02-11T09:34:56.142Z,33.77
2023-02-11T09:36:01.511Z,34.13
2023-02-11T09:37:03.289Z,33.03
2023-02-11T09:38:04.972Z,37.23
2023-02-11T09:39:12.129Z,33.33
2023-02-11T09:40:15.902Z,36.87
2023-02-11T09:41:40.265Z,37.67
2023-02-11T09:43:15.764Z,33.83
2023-02-11T09:44:23.714Z,38.17
2023-02-11T09:45:28.113Z,34.30
2023-02-11T09:46:37.644Z,38.30
2023-02-11T09:48:06.517Z,35.70
2023-02-11T09:49:18.801Z,34.20
2023-02-11T09:50:35.279Z,34.80
2023-02-11T09:51:47.337Z,33.60
2023-02-11T09:52:56.725Z,37.07
2023-02-11T09:54:05.567Z,35.30
2023-02-11T09:55:21.763Z,34.60
2023-02-11T09:56:25.057Z,37.43
2023-02-11T09:57:36.868Z,34.93
2023-02-11T09:58:43.969Z,34.20
2023-02-11T09:59:45.772Z,33.53
2023-02-11T10:00:57.542Z,36.97
2023-02-11T10:02:04.254Z,35.93
2023-02-11T10:03:48.310Z,36.80
2023-02-11T10:05:09.688Z,36.70
2023-02-11T10:06:34.444Z,36.60
2023-02-11T10:07:55.048Z,37.27
2023-02-11T10:09:23.881Z,35.50
2023-02-11T10:10:25.630Z,36.03
2023-02-11T10:12:06.341Z,34.17
2023-02-11T10:13:25.835Z,36.70
2023-02-11T10:15:06.972Z,38.00
2023-02-11T10:16:48.242Z,34.70
2023-02-11T10:18:23.612Z,35.00
2023-02-11T10:19:51.024Z,33.27
2023-02-11T10:21:18.869Z,32.77
2023-02-11T10:22:39.517Z,34.10
2023-02-11T10:23:44.832Z,32.53
2023-02-11T10:25:00.363Z,32.23
2023-02-11T10:26:02.623Z,36.60
2023-02-11T10:27:17.793Z,32.10
2023-02-11T10:28:25.043Z,32.57
2023-02-11T10:29:36.131Z,33.13
2023-02-11T10:31:01.499Z,35.93
2023-02-11T10:32:15.686Z,36.13
2023-02-11T10:33:43.746Z,34.23
2023-02-11T10:34:45.403Z,32.83
2023-02-11T10:35:47.296Z,31.47
2023-02-11T10:36:49.025Z,32.67
2023-02-11T10:37:50.848Z,34.33
2023-02-11T10:38:52.570Z,36.50
2023-02-11T10:39:54.376Z,35.30
2023-02-11T10:40:56.081Z,32.83
2023-02-11T10:42:10.867Z,32.90
2023-02-11T10:43:16.371Z,32.23
2023-02-11T10:44:30.154Z,30.60
2023-02-11T10:45:38.673Z,34.47
2023-02-11T10:46:40.516Z,33.23
2023-02-11T10:47:43.456Z,36.97
2023-02-11T10:48:50.895Z,32.70
2023-02-11T10:49:52.663Z,33.40
2023-02-11T10:51:07.417Z,29.30
2023-02-11T10:52:20.747Z,33.50
2023-02-11T10:53:24.360Z,32.27
2023-02-11T10:54:26.091Z,32.73
2023-02-11T10:55:28.675Z,31.27
2023-02-11T10:56:36.338Z,34.53
2023-02-11T10:57:51.208Z,29.70
2023-02-11T10:59:00.114Z,33.23
2023-02-11T11:00:07.998Z,32.63
2023-02-11T11:01:23.782Z,37.20
2023-02-11T11:02:36.102Z,32.33
2023-02-11T11:03:48.364Z,31.67
2023-02-11T11:04:55.656Z,32.53
2023-02-11T11:06:03.895Z,29.83
2023-02-11T11:07:25.991Z,31.13
2023-02-11T11:08:44.079Z,28.77
2023-02-11T11:09:53.826Z,29.10
2023-02-11T11:11:07.328Z,30.20
2023-02-11T11:12:35.213Z,26.43
2023-02-11T11:14:03.197Z,28.87
2023-02-11T11:15:10.694Z,30.30
2023-02-11T11:16:12.450Z,31.07
2023-02-11T11:17:19.089Z,29.27
2023-02-11T11:18:23.236Z,32.20
2023-02-11T11:19:26.263Z,30.73
2023-02-11T11:20:32.206Z,30.53
2023-02-11T11:21:42.134Z,26.87
2023-02-11T11:22:45.397Z,28.87
2023-02-11T11:23:57.472Z,32.37
2023-02-11T11:25:01.541Z,29.90
2023-02-11T11:26:12.152Z,34.00
2023-02-11T11:27:23.589Z,27.53
2023-02-11T11:28:28.243Z,30.03
2023-02-11T11:29:43.218Z,27.23
2023-02-11T11:30:45.048Z,27.87
2023-02-11T11:32:15.577Z,36.80
2023-02-11T11:33:25.085Z,31.37
2023-02-11T11:34:32.005Z,25.63
2023-02-11T11:35:34.900Z,26.93
2023-02-11T11:36:40.292Z,29.80
2023-02-11T11:37:42.294Z,28.00
2023-02-11T11:38:49.092Z,30.80
2023-02-11T11:40:00.792Z,24.50
2023-02-11T11:41:24.148Z,22.70
2023-02-11T11:42:32.042Z,23.27
2023-02-11T11:43:33.737Z,22.30
2023-02-11T11:44:38.297Z,22.53
2023-02-11T11:45:53.070Z,25.10
2023-02-11T11:47:11.052Z,25.77
2023-02-11T11:48:22.378Z,24.17
2023-02-11T11:49:33.150Z,23.17
2023-02-11T11:50:47.408Z,24.03
2023-02-11T11:52:00.775Z,26.87
2023-02-11T11:53:27.866Z,22.73
2023-02-11T11:54:31.606Z,25.37
2023-02-11T11:55:41.725Z,22.87
2023-02-11T11:56:54.814Z,21.27
2023-02-11T11:57:56.583Z,16.10
2023-02-11T11:59:02.135Z,18.67
2023-02-11T12:00:05.099Z,17.63
2023-02-11T12:01:40.754Z,22.40
2023-02-11T12:03:27.534Z,17.20
2023-02-11T12:04:53.447Z,18.50
2023-02-11T12:06:22.778Z,16.80
2023-02-11T12:07:45.677Z,18.17
2023-02-11T12:09:25.513Z,15.73
2023-02-11T12:10:35.371Z,18.47
2023-02-11T12:11:37.142Z,17.30
2023-02-11T12:12:57.307Z,16.77
2023-02-11T12:14:32.876Z,15.73
2023-02-11T12:16:04.494Z,17.33
2023-02-11T12:17:31.057Z,16.10
2023-02-11T12:19:00.817Z,17.50
2023-02-11T12:20:24.285Z,14.00
2023-02-11T12:21:44.418Z,16.70
2023-02-11T12:23:07.236Z,16.50
2023-02-11T12:24:23.778Z,15.17
2023-02-11T12:25:29.164Z,14.30
2023-02-11T12:27:14.100Z,14.70
2023-02-11T12:29:12.717Z,12.73
2023-02-11T12:30:27.676Z,12.83
2023-02-11T12:31:46.875Z,16.07
2023-02-11T12:33:19.383Z,14.37
2023-02-11T12:34:24.285Z,14.17
2023-02-11T12:35:34.151Z,15.90
2023-02-11T12:36:54.410Z,15.70
2023-02-11T12:38:29.413Z,14.90
2023-02-11T12:39:48.290Z,13.30
2023-02-11T12:40:58.115Z,11.37
2023-02-11T12:42:31.910Z,13.77
2023-02-11T12:43:38.604Z,14.27
2023-02-11T12:45:00.552Z,13.13
2023-02-11T12:46:23.581Z,13.30
2023-02-11T12:47:28.168Z,15.20
2023-02-11T12:48:51.421Z,12.83
2023-02-11T12:50:19.242Z,10.73
2023-02-11T12:51:42.659Z,12.60
2023-02-11T12:53:25.803Z,13.70
2023-02-11T12:54:27.487Z,12.47
2023-02-11T12:55:37.201Z,9.93
2023-02-11T12:56:52.451Z,12.43
2023-02-11T12:57:57.887Z,10.88
2023-02-11T12:59:01.892Z,12.37
2023-02-11T13:00:12.662Z,11.07
2023-02-11T13:01:23.756Z,11.70
2023-02-11T13:02:40.410Z,11.53
2023-02-11T13:03:45.295Z,11.60
2023-02-11T13:04:54.042Z,10.90
2023-02-11T13:06:02.384Z,11.60
2023-02-11T13:07:12.563Z,10.70
2023-02-11T13:08:19.151Z,11.52
2023-02-11T13:09:30.625Z,9.40
2023-02-11T13:10:36.807Z,11.87
2023-02-11T13:11:51.851Z,9.80
2023-02-11T13:13:14.647Z,9.87
2023-02-11T13:14:28.491Z,10.23
2023-02-11T13:15:31.329Z,11.33
2023-02-11T13:16:46.309Z,10.43
2023-02-11T13:18:04.197Z,10.13
2023-02-11T13:19:27.805Z,13.70
2023-02-11T13:20:35.906Z,10.93
2023-02-11T13:22:08.836Z,10.87
2023-02-11T13:23:23.238Z,10.00
2023-02-11T13:24:47.954Z,10.63
2023-02-11T13:25:55.760Z,12.77
2023-02-11T13:27:04.205Z,10.70
2023-02-11T13:28:25.752Z,11.07
2023-02-11T13:29:49.498Z,10.20
2023-02-11T13:31:02.085Z,13.47
2023-02-11T13:32:12.587Z,11.77
2023-02-11T13:33:21.053Z,12.57
2023-02-11T13:34:46.895Z,15.97
2023-02-11T13:35:57.901Z,10.23
2023-02-11T13:36:59.720Z,9.93
2023-02-11T13:38:04.629Z,9.80
2023-02-11T13:39:06.768Z,10.77
2023-02-11T13:40:24.879Z,10.60
2023-02-11T13:41:30.786Z,10.23
2023-02-11T13:42:44.740Z,10.77
2023-02-11T13:44:19.355Z,10.10
2023-02-11T13:45:29.092Z,11.75
2023-02-11T13:46:50.808Z,14.27
2023-02-11T13:47:58.328Z,14.20
2023-02-11T13:49:00.158Z,11.60
2023-02-11T13:50:06.586Z,14.93
2023-02-11T13:51:12.482Z,11.70
2023-02-11T13:52:31.592Z,16.83
2023-02-11T13:53:56.678Z,17.90
2023-02-11T13:55:19.971Z,15.73
2023-02-11T13:56:44.041Z,18.40
2023-02-11T13:57:45.887Z,15.13
2023-02-11T13:58:49.299Z,18.43
2023-02-11T13:59:56.830Z,17.63
2023-02-11T14:00:58.644Z,20.87
2023-02-11T14:02:43.896Z,20.60
2023-02-11T14:04:36.643Z,17.17
2023-02-11T14:05:57.125Z,19.50
2023-02-11T14:07:44.618Z,20.87
2023-02-11T14:09:09.024Z,18.45
2023-02-11T14:10:42.925Z,18.80
2023-02-11T14:11:56.250Z,19.37
2023-02-11T14:13:26.392Z,16.73
2023-02-11T14:14:33.507Z,21.83
2023-02-11T14:15:40.324Z,16.23
2023-02-11T14:17:00.425Z,19.73
2023-02-11T14:18:03.306Z,18.97
2023-02-11T14:19:06.115Z,19.40
2023-02-11T14:20:43.567Z,32.00
2023-02-11T14:21:47.033Z,18.93
2023-02-11T14:22:50.777Z,17.33
2023-02-11T14:23:53.353Z,19.93
2023-02-11T14:25:04.306Z,17.83
2023-02-11T14:26:21.147Z,18.83
2023-02-11T14:27:41.738Z,19.10
2023-02-11T14:28:46.797Z,19.23
2023-02-11T14:30:13.180Z,16.73